sensor_id;sensor_type;location;lat;lon;timestamp;P1;durP1;ratioP1;P2;durP2;ratioP2
50319;SDS011;36226;53.464;9.852;2022-10-31T00:00:55;24.60;;;13.38;;
50319;SDS011;36226;53.464;9.852;2022-10-31T00:03:21;23.98;;;12.75;;
50319;SDS011;36226;53.464;9.852;2022-10-31T00:05:47;24.77;;;13.63;;
50319;SDS011;36226;53.464;9.852;2022-10-31T00:08:13;32.50;;;16.02;;
50319;SDS011;36226;53.464;9.852;2022-10-31T00:10:40;24.05;;;13.32;;
50319;SDS011;36226;53.464;9.852;2022-10-31T00:13:06;27.13;;;14.90;;
50319;SDS011;36226;53.464;9.852;2022-10-31T00:15:32;26.80;;;14.50;;
50319;SDS011;36226;53.464;9.852;2022-10-31T00:17:59;30.90;;;15.38;;
50319;SDS011;36226;53.464;9.852;2022-10-31T00:20:24;23.80;;;13.50;;
50319;SDS011;36226;53.464;9.852;2022-10-31T00:22:49;24.38;;;14.32;;
50319;SDS011;36226;53.464;9.852;2022-10-31T00:25:15;36.30;;;16.00;;
50319;SDS011;36226;53.464;9.852;2022-10-31T00:27:40;24.73;;;13.57;;
50319;SDS011;36226;53.464;9.852;2022-10-31T00:30:06;27.05;;;14.77;;
50319;SDS011;36226;53.464;9.852;2022-10-31T00:32:31;28.25;;;16.55;;
50319;SDS011;36226;53.464;9.852;2022-10-31T00:34:57;34.13;;;16.27;;
50319;SDS011;36226;53.464;9.852;2022-10-31T00:37:22;26.45;;;15.52;;
50319;SDS011;36226;53.464;9.852;2022-10-31T00:39:47;27.73;;;15.05;;
50319;SDS011;36226;53.464;9.852;2022-10-31T00:42:14;24.90;;;14.45;;
50319;SDS011;36226;53.464;9.852;2022-10-31T00:44:39;28.08;;;15.05;;
50319;SDS011;36226;53.464;9.852;2022-10-31T00:47:05;24.88;;;14.38;;
50319;SDS011;36226;53.464;9.852;2022-10-31T00:49:30;23.48;;;15.45;;
50319;SDS011;36226;53.464;9.852;2022-10-31T00:51:55;27.50;;;14.68;;
50319;SDS011;36226;53.464;9.852;2022-10-31T00:54:21;22.77;;;13.68;;
50319;SDS011;36226;53.464;9.852;2022-10-31T00:56:46;23.60;;;14.25;;
50319;SDS011;36226;53.464;9.852;2022-10-31T00:59:12;25.77;;;15.93;;
50319;SDS011;36226;53.464;9.852;2022-10-31T01:01:37;28.92;;;16.67;;
50319;SDS011;36226;53.464;9.852;2022-10-31T01:04:02;24.73;;;14.15;;
50319;SDS011;36226;53.464;9.852;2022-10-31T01:06:28;26.50;;;15.07;;
50319;SDS011;36226;53.464;9.852;2022-10-31T01:08:53;31.23;;;16.70;;
50319;SDS011;36226;53.464;9.852;2022-10-31T01:11:20;26.48;;;15.55;;
50319;SDS011;36226;53.464;9.852;2022-10-31T01:13:46;23.30;;;14.50;;
50319;SDS011;36226;53.464;9.852;2022-10-31T01:16:16;28.17;;;16.60;;
50319;SDS011;36226;53.464;9.852;2022-10-31T01:18:42;28.10;;;16.30;;
50319;SDS011;36226;53.464;9.852;2022-10-31T01:21:09;29.48;;;15.30;;
50319;SDS011;36226;53.464;9.852;2022-10-31T01:23:37;28.50;;;17.48;;
50319;SDS011;36226;53.464;9.852;2022-10-31T01:26:07;30.50;;;17.45;;
50319;SDS011;36226;53.464;9.852;2022-10-31T01:28:38;31.73;;;18.80;;
50319;SDS011;36226;53.464;9.852;2022-10-31T01:31:09;32.70;;;18.48;;
50319;SDS011;36226;53.464;9.852;2022-10-31T01:33:34;32.67;;;17.70;;
50319;SDS011;36226;53.464;9.852;2022-10-31T01:36:00;33.78;;;18.33;;
50319;SDS011;36226;53.464;9.852;2022-10-31T01:38:26;32.80;;;19.17;;
50319;SDS011;36226;53.464;9.852;2022-10-31T01:40:52;32.88;;;19.08;;
50319;SDS011;36226;53.464;9.852;2022-10-31T01:43:17;32.03;;;17.70;;
50319;SDS011;36226;53.464;9.852;2022-10-31T01:45:44;31.20;;;18.17;;
50319;SDS011;36226;53.464;9.852;2022-10-31T01:48:14;33.47;;;18.33;;
50319;SDS011;36226;53.464;9.852;2022-10-31T01:50:40;33.55;;;18.02;;
50319;SDS011;36226;53.464;9.852;2022-10-31T01:53:07;32.78;;;18.88;;
50319;SDS011;36226;53.464;9.852;2022-10-31T01:55:38;34.88;;;19.20;;
50319;SDS011;36226;53.464;9.852;2022-10-31T01:58:06;31.48;;;16.88;;
50319;SDS011;36226;53.464;9.852;2022-10-31T02:00:35;35.72;;;17.88;;
50319;SDS011;36226;53.464;9.852;2022-10-31T02:03:00;30.35;;;17.27;;
50319;SDS011;36226;53.464;9.852;2022-10-31T02:05:27;37.65;;;19.10;;
50319;SDS011;36226;53.464;9.852;2022-10-31T02:07:55;30.23;;;16.58;;
50319;SDS011;36226;53.464;9.852;2022-10-31T02:10:26;37.33;;;20.45;;
50319;SDS011;36226;53.464;9.852;2022-10-31T02:12:52;45.00;;;19.95;;
50319;SDS011;36226;53.464;9.852;2022-10-31T02:15:20;35.83;;;19.30;;
50319;SDS011;36226;53.464;9.852;2022-10-31T02:17:45;39.17;;;20.50;;
50319;SDS011;36226;53.464;9.852;2022-10-31T02:20:15;34.05;;;20.35;;
50319;SDS011;36226;53.464;9.852;2022-10-31T02:25:57;33.15;;;18.73;;
50319;SDS011;36226;53.464;9.852;2022-10-31T02:28:49;37.25;;;20.20;;
50319;SDS011;36226;53.464;9.852;2022-10-31T02:31:30;31.20;;;18.17;;
50319;SDS011;36226;53.464;9.852;2022-10-31T02:34:02;39.47;;;20.40;;
50319;SDS011;36226;53.464;9.852;2022-10-31T02:36:40;35.60;;;19.98;;
50319;SDS011;36226;53.464;9.852;2022-10-31T02:39:22;38.15;;;20.13;;
50319;SDS011;36226;53.464;9.852;2022-10-31T02:44:35;33.45;;;19.88;;
50319;SDS011;36226;53.464;9.852;2022-10-31T02:47:05;34.30;;;19.73;;
50319;SDS011;36226;53.464;9.852;2022-10-31T02:49:41;36.67;;;20.55;;
50319;SDS011;36226;53.464;9.852;2022-10-31T02:52:25;33.38;;;20.58;;
50319;SDS011;36226;53.464;9.852;2022-10-31T02:54:50;39.28;;;19.83;;
50319;SDS011;36226;53.464;9.852;2022-10-31T02:57:17;33.40;;;19.85;;
50319;SDS011;36226;53.464;9.852;2022-10-31T02:59:49;32.55;;;19.63;;
50319;SDS011;36226;53.464;9.852;2022-10-31T03:02:39;38.95;;;19.35;;
50319;SDS011;36226;53.464;9.852;2022-10-31T03:07:51;32.92;;;18.98;;
50319;SDS011;36226;53.464;9.852;2022-10-31T03:13:33;32.70;;;19.63;;
50319;SDS011;36226;53.464;9.852;2022-10-31T03:18:57;40.05;;;20.67;;
50319;SDS011;36226;53.464;9.852;2022-10-31T03:21:27;35.75;;;19.90;;
50319;SDS011;36226;53.464;9.852;2022-10-31T03:23:57;34.28;;;20.25;;
50319;SDS011;36226;53.464;9.852;2022-10-31T03:26:23;35.75;;;21.02;;
50319;SDS011;36226;53.464;9.852;2022-10-31T03:28:51;37.83;;;19.88;;
50319;SDS011;36226;53.464;9.852;2022-10-31T03:31:20;32.10;;;20.40;;
50319;SDS011;36226;53.464;9.852;2022-10-31T03:33:50;36.38;;;19.92;;
50319;SDS011;36226;53.464;9.852;2022-10-31T03:36:16;37.28;;;20.05;;
50319;SDS011;36226;53.464;9.852;2022-10-31T03:38:42;48.22;;;21.55;;
50319;SDS011;36226;53.464;9.852;2022-10-31T03:41:10;39.53;;;21.05;;
50319;SDS011;36226;53.464;9.852;2022-10-31T03:43:42;40.53;;;20.48;;
50319;SDS011;36226;53.464;9.852;2022-10-31T03:46:08;37.88;;;20.88;;
50319;SDS011;36226;53.464;9.852;2022-10-31T03:48:33;38.25;;;20.38;;
50319;SDS011;36226;53.464;9.852;2022-10-31T03:51:14;34.10;;;18.98;;
50319;SDS011;36226;53.464;9.852;2022-10-31T03:54:07;34.95;;;20.08;;
50319;SDS011;36226;53.464;9.852;2022-10-31T03:56:41;33.92;;;20.67;;
50319;SDS011;36226;53.464;9.852;2022-10-31T03:59:16;34.58;;;18.73;;
50319;SDS011;36226;53.464;9.852;2022-10-31T04:01:49;35.72;;;20.73;;
50319;SDS011;36226;53.464;9.852;2022-10-31T04:04:17;34.30;;;20.52;;
50319;SDS011;36226;53.464;9.852;2022-10-31T04:06:44;36.65;;;20.63;;
50319;SDS011;36226;53.464;9.852;2022-10-31T04:09:11;39.03;;;21.70;;
50319;SDS011;36226;53.464;9.852;2022-10-31T04:11:40;41.53;;;21.77;;
50319;SDS011;36226;53.464;9.852;2022-10-31T04:14:09;42.38;;;20.98;;
50319;SDS011;36226;53.464;9.852;2022-10-31T04:16:36;49.17;;;24.10;;
50319;SDS011;36226;53.464;9.852;2022-10-31T04:19:04;43.97;;;24.35;;
50319;SDS011;36226;53.464;9.852;2022-10-31T04:21:29;40.42;;;21.90;;
50319;SDS011;36226;53.464;9.852;2022-10-31T04:23:56;40.10;;;21.52;;
50319;SDS011;36226;53.464;9.852;2022-10-31T04:26:24;48.45;;;23.80;;
50319;SDS011;36226;53.464;9.852;2022-10-31T04:28:49;41.08;;;24.85;;
50319;SDS011;36226;53.464;9.852;2022-10-31T04:31:15;41.58;;;23.00;;
50319;SDS011;36226;53.464;9.852;2022-10-31T04:33:41;44.47;;;24.90;;
50319;SDS011;36226;53.464;9.852;2022-10-31T04:36:06;40.90;;;23.15;;
50319;SDS011;36226;53.464;9.852;2022-10-31T04:38:32;44.25;;;24.80;;
50319;SDS011;36226;53.464;9.852;2022-10-31T04:40:57;46.78;;;24.08;;
50319;SDS011;36226;53.464;9.852;2022-10-31T04:43:22;47.97;;;24.83;;
50319;SDS011;36226;53.464;9.852;2022-10-31T04:45:48;46.38;;;23.77;;
50319;SDS011;36226;53.464;9.852;2022-10-31T04:48:15;40.05;;;23.00;;
50319;SDS011;36226;53.464;9.852;2022-10-31T04:50:41;38.47;;;22.70;;
50319;SDS011;36226;53.464;9.852;2022-10-31T04:53:06;44.47;;;22.77;;
50319;SDS011;36226;53.464;9.852;2022-10-31T04:55:32;43.00;;;23.50;;
50319;SDS011;36226;53.464;9.852;2022-10-31T04:57:57;39.28;;;20.83;;
50319;SDS011;36226;53.464;9.852;2022-10-31T05:00:23;41.55;;;22.20;;
50319;SDS011;36226;53.464;9.852;2022-10-31T05:02:49;41.53;;;22.83;;
50319;SDS011;36226;53.464;9.852;2022-10-31T05:05:16;42.53;;;23.05;;
50319;SDS011;36226;53.464;9.852;2022-10-31T05:07:43;43.65;;;22.55;;
50319;SDS011;36226;53.464;9.852;2022-10-31T05:10:10;41.35;;;21.65;;
50319;SDS011;36226;53.464;9.852;2022-10-31T05:12:36;36.53;;;20.83;;
50319;SDS011;36226;53.464;9.852;2022-10-31T05:15:02;36.78;;;20.98;;
50319;SDS011;36226;53.464;9.852;2022-10-31T05:17:28;35.67;;;20.48;;
50319;SDS011;36226;53.464;9.852;2022-10-31T05:19:53;36.35;;;20.38;;
50319;SDS011;36226;53.464;9.852;2022-10-31T05:22:18;35.17;;;20.25;;
50319;SDS011;36226;53.464;9.852;2022-10-31T05:24:44;33.67;;;20.45;;
50319;SDS011;36226;53.464;9.852;2022-10-31T05:27:09;35.13;;;20.90;;
50319;SDS011;36226;53.464;9.852;2022-10-31T05:29:34;37.10;;;20.10;;
50319;SDS011;36226;53.464;9.852;2022-10-31T05:32:00;39.92;;;22.00;;
50319;SDS011;36226;53.464;9.852;2022-10-31T05:34:25;34.67;;;19.92;;
50319;SDS011;36226;53.464;9.852;2022-10-31T05:36:50;34.33;;;19.27;;
50319;SDS011;36226;53.464;9.852;2022-10-31T05:39:16;33.58;;;19.65;;
50319;SDS011;36226;53.464;9.852;2022-10-31T05:41:41;38.63;;;20.10;;
50319;SDS011;36226;53.464;9.852;2022-10-31T05:44:06;31.42;;;18.73;;
50319;SDS011;36226;53.464;9.852;2022-10-31T05:46:32;34.53;;;18.83;;
50319;SDS011;36226;53.464;9.852;2022-10-31T05:48:57;31.02;;;18.17;;
50319;SDS011;36226;53.464;9.852;2022-10-31T05:51:22;32.83;;;19.15;;
50319;SDS011;36226;53.464;9.852;2022-10-31T05:53:48;27.98;;;17.50;;
50319;SDS011;36226;53.464;9.852;2022-10-31T05:56:16;30.17;;;18.27;;
50319;SDS011;36226;53.464;9.852;2022-10-31T05:58:41;36.63;;;19.20;;
50319;SDS011;36226;53.464;9.852;2022-10-31T06:01:07;32.95;;;18.63;;
50319;SDS011;36226;53.464;9.852;2022-10-31T06:03:32;32.35;;;18.83;;
50319;SDS011;36226;53.464;9.852;2022-10-31T06:05:57;31.30;;;17.33;;
50319;SDS011;36226;53.464;9.852;2022-10-31T06:08:22;30.17;;;17.48;;
50319;SDS011;36226;53.464;9.852;2022-10-31T06:10:48;30.52;;;17.60;;
50319;SDS011;36226;53.464;9.852;2022-10-31T06:13:13;31.38;;;18.70;;
50319;SDS011;36226;53.464;9.852;2022-10-31T06:15:38;25.77;;;16.20;;
50319;SDS011;36226;53.464;9.852;2022-10-31T06:18:04;28.10;;;16.60;;
50319;SDS011;36226;53.464;9.852;2022-10-31T06:20:30;33.67;;;18.55;;
50319;SDS011;36226;53.464;9.852;2022-10-31T06:22:56;29.25;;;17.67;;
50319;SDS011;36226;53.464;9.852;2022-10-31T06:25:22;31.02;;;18.73;;
50319;SDS011;36226;53.464;9.852;2022-10-31T06:27:47;27.20;;;16.83;;
50319;SDS011;36226;53.464;9.852;2022-10-31T06:30:12;33.63;;;18.90;;
50319;SDS011;36226;53.464;9.852;2022-10-31T06:32:38;31.45;;;17.20;;
50319;SDS011;36226;53.464;9.852;2022-10-31T06:35:03;29.83;;;17.52;;
50319;SDS011;36226;53.464;9.852;2022-10-31T06:37:29;30.75;;;17.58;;
50319;SDS011;36226;53.464;9.852;2022-10-31T06:39:55;29.65;;;17.10;;
50319;SDS011;36226;53.464;9.852;2022-10-31T06:42:20;33.22;;;17.20;;
50319;SDS011;36226;53.464;9.852;2022-10-31T06:44:45;30.75;;;17.02;;
50319;SDS011;36226;53.464;9.852;2022-10-31T06:47:10;24.15;;;15.63;;
50319;SDS011;36226;53.464;9.852;2022-10-31T06:49:36;29.98;;;17.67;;
50319;SDS011;36226;53.464;9.852;2022-10-31T06:52:01;26.83;;;16.63;;
50319;SDS011;36226;53.464;9.852;2022-10-31T06:54:26;29.67;;;16.27;;
50319;SDS011;36226;53.464;9.852;2022-10-31T06:56:52;29.33;;;17.02;;
50319;SDS011;36226;53.464;9.852;2022-10-31T06:59:17;29.48;;;17.35;;
50319;SDS011;36226;53.464;9.852;2022-10-31T07:01:42;35.72;;;17.25;;
50319;SDS011;36226;53.464;9.852;2022-10-31T07:04:09;29.48;;;16.95;;
50319;SDS011;36226;53.464;9.852;2022-10-31T07:06:35;31.23;;;17.90;;
50319;SDS011;36226;53.464;9.852;2022-10-31T07:09:00;29.88;;;16.92;;
50319;SDS011;36226;53.464;9.852;2022-10-31T07:11:25;27.15;;;16.20;;
50319;SDS011;36226;53.464;9.852;2022-10-31T07:13:51;31.90;;;17.05;;
50319;SDS011;36226;53.464;9.852;2022-10-31T07:16:16;39.47;;;18.25;;
50319;SDS011;36226;53.464;9.852;2022-10-31T07:18:41;26.33;;;16.60;;
50319;SDS011;36226;53.464;9.852;2022-10-31T07:21:07;27.95;;;17.33;;
50319;SDS011;36226;53.464;9.852;2022-10-31T07:23:32;27.08;;;16.98;;
50319;SDS011;36226;53.464;9.852;2022-10-31T07:25:58;26.23;;;16.55;;
50319;SDS011;36226;53.464;9.852;2022-10-31T07:28:24;31.25;;;17.08;;
50319;SDS011;36226;53.464;9.852;2022-10-31T07:30:53;27.13;;;15.68;;
50319;SDS011;36226;53.464;9.852;2022-10-31T07:33:19;33.33;;;17.00;;
50319;SDS011;36226;53.464;9.852;2022-10-31T07:35:46;28.58;;;17.30;;
50319;SDS011;36226;53.464;9.852;2022-10-31T07:38:12;31.17;;;16.92;;
50319;SDS011;36226;53.464;9.852;2022-10-31T07:40:38;34.45;;;17.48;;
50319;SDS011;36226;53.464;9.852;2022-10-31T07:43:04;23.35;;;16.05;;
50319;SDS011;36226;53.464;9.852;2022-10-31T07:45:30;25.75;;;16.13;;
50319;SDS011;36226;53.464;9.852;2022-10-31T07:47:56;25.40;;;16.60;;
50319;SDS011;36226;53.464;9.852;2022-10-31T07:50:26;29.08;;;16.45;;
50319;SDS011;36226;53.464;9.852;2022-10-31T07:52:59;28.10;;;15.98;;
50319;SDS011;36226;53.464;9.852;2022-10-31T07:55:32;27.20;;;16.55;;
50319;SDS011;36226;53.464;9.852;2022-10-31T07:57:59;30.77;;;16.52;;
50319;SDS011;36226;53.464;9.852;2022-10-31T08:00:28;26.58;;;15.95;;
50319;SDS011;36226;53.464;9.852;2022-10-31T08:03:00;26.70;;;16.65;;
50319;SDS011;36226;53.464;9.852;2022-10-31T08:05:27;28.58;;;16.48;;
50319;SDS011;36226;53.464;9.852;2022-10-31T08:07:53;25.65;;;15.90;;
50319;SDS011;36226;53.464;9.852;2022-10-31T08:10:19;26.00;;;15.18;;
50319;SDS011;36226;53.464;9.852;2022-10-31T08:12:44;24.00;;;14.70;;
50319;SDS011;36226;53.464;9.852;2022-10-31T08:15:10;27.15;;;16.38;;
50319;SDS011;36226;53.464;9.852;2022-10-31T08:17:35;27.75;;;15.93;;
50319;SDS011;36226;53.464;9.852;2022-10-31T08:20:01;23.17;;;15.07;;
50319;SDS011;36226;53.464;9.852;2022-10-31T08:22:27;27.70;;;15.88;;
50319;SDS011;36226;53.464;9.852;2022-10-31T08:24:53;27.90;;;16.17;;
50319;SDS011;36226;53.464;9.852;2022-10-31T08:27:18;29.30;;;16.73;;
50319;SDS011;36226;53.464;9.852;2022-10-31T08:29:43;30.45;;;16.60;;
50319;SDS011;36226;53.464;9.852;2022-10-31T08:32:09;27.13;;;15.52;;
50319;SDS011;36226;53.464;9.852;2022-10-31T08:34:34;25.98;;;15.98;;
50319;SDS011;36226;53.464;9.852;2022-10-31T08:36:59;28.98;;;15.93;;
50319;SDS011;36226;53.464;9.852;2022-10-31T08:39:25;27.30;;;16.40;;
50319;SDS011;36226;53.464;9.852;2022-10-31T08:41:50;27.83;;;15.77;;
50319;SDS011;36226;53.464;9.852;2022-10-31T08:44:16;29.08;;;15.30;;
50319;SDS011;36226;53.464;9.852;2022-10-31T08:46:41;24.92;;;15.38;;
50319;SDS011;36226;53.464;9.852;2022-10-31T08:49:06;25.90;;;15.02;;
50319;SDS011;36226;53.464;9.852;2022-10-31T08:51:32;27.30;;;15.30;;
50319;SDS011;36226;53.464;9.852;2022-10-31T08:53:57;28.88;;;15.60;;
50319;SDS011;36226;53.464;9.852;2022-10-31T08:56:22;28.92;;;15.77;;
50319;SDS011;36226;53.464;9.852;2022-10-31T08:58:48;29.42;;;15.60;;
50319;SDS011;36226;53.464;9.852;2022-10-31T09:01:13;28.17;;;15.27;;
50319;SDS011;36226;53.464;9.852;2022-10-31T09:03:38;29.27;;;16.40;;
50319;SDS011;36226;53.464;9.852;2022-10-31T09:06:04;26.23;;;15.32;;
50319;SDS011;36226;53.464;9.852;2022-10-31T09:08:33;25.25;;;15.18;;
50319;SDS011;36226;53.464;9.852;2022-10-31T09:10:58;26.63;;;15.77;;
50319;SDS011;36226;53.464;9.852;2022-10-31T09:13:24;26.20;;;15.43;;
50319;SDS011;36226;53.464;9.852;2022-10-31T09:15:49;27.92;;;15.43;;
50319;SDS011;36226;53.464;9.852;2022-10-31T09:18:16;26.92;;;15.10;;
50319;SDS011;36226;53.464;9.852;2022-10-31T09:20:43;27.55;;;15.00;;
50319;SDS011;36226;53.464;9.852;2022-10-31T09:23:13;22.23;;;14.25;;
50319;SDS011;36226;53.464;9.852;2022-10-31T09:25:40;25.83;;;15.60;;
50319;SDS011;36226;53.464;9.852;2022-10-31T09:28:06;26.27;;;14.75;;
50319;SDS011;36226;53.464;9.852;2022-10-31T09:30:34;28.58;;;15.43;;
50319;SDS011;36226;53.464;9.852;2022-10-31T09:33:01;24.83;;;14.55;;
50319;SDS011;36226;53.464;9.852;2022-10-31T09:35:27;29.58;;;15.15;;
50319;SDS011;36226;53.464;9.852;2022-10-31T09:38:00;25.83;;;14.55;;
50319;SDS011;36226;53.464;9.852;2022-10-31T09:40:34;24.70;;;13.40;;
50319;SDS011;36226;53.464;9.852;2022-10-31T09:45:39;25.45;;;13.00;;
50319;SDS011;36226;53.464;9.852;2022-10-31T09:50:55;26.92;;;12.68;;
50319;SDS011;36226;53.464;9.852;2022-10-31T09:53:27;22.98;;;13.02;;
50319;SDS011;36226;53.464;9.852;2022-10-31T09:55:57;24.02;;;13.27;;
50319;SDS011;36226;53.464;9.852;2022-10-31T09:58:24;31.58;;;16.13;;
50319;SDS011;36226;53.464;9.852;2022-10-31T10:00:51;30.92;;;14.73;;
50319;SDS011;36226;53.464;9.852;2022-10-31T10:05:59;30.15;;;15.60;;
50319;SDS011;36226;53.464;9.852;2022-10-31T10:08:47;28.40;;;14.32;;
50319;SDS011;36226;53.464;9.852;2022-10-31T10:14:25;27.00;;;13.88;;
50319;SDS011;36226;53.464;9.852;2022-10-31T10:17:17;25.08;;;13.73;;
50319;SDS011;36226;53.464;9.852;2022-10-31T10:25:25;29.67;;;14.68;;
50319;SDS011;36226;53.464;9.852;2022-10-31T10:30:56;24.60;;;13.60;;
50319;SDS011;36226;53.464;9.852;2022-10-31T10:33:51;26.77;;;14.05;;
50319;SDS011;36226;53.464;9.852;2022-10-31T10:36:25;25.15;;;15.40;;
50319;SDS011;36226;53.464;9.852;2022-10-31T10:38:58;27.63;;;15.07;;
50319;SDS011;36226;53.464;9.852;2022-10-31T10:41:31;31.38;;;15.65;;
50319;SDS011;36226;53.464;9.852;2022-10-31T10:43:57;32.97;;;17.60;;
50319;SDS011;36226;53.464;9.852;2022-10-31T10:47:05;33.35;;;16.35;;
50319;SDS011;36226;53.464;9.852;2022-10-31T11:00:27;34.45;;;16.60;;
50319;SDS011;36226;53.464;9.852;2022-10-31T11:02:56;29.60;;;16.20;;
50319;SDS011;36226;53.464;9.852;2022-10-31T11:07:53;34.35;;;16.52;;
50319;SDS011;36226;53.464;9.852;2022-10-31T11:10:27;37.28;;;17.20;;
50319;SDS011;36226;53.464;9.852;2022-10-31T11:16:03;29.52;;;13.88;;
50319;SDS011;36226;53.464;9.852;2022-10-31T11:18:31;24.75;;;13.57;;
50319;SDS011;36226;53.464;9.852;2022-10-31T11:20:59;25.90;;;14.05;;
50319;SDS011;36226;53.464;9.852;2022-10-31T11:23:26;24.23;;;13.45;;
50319;SDS011;36226;53.464;9.852;2022-10-31T11:28:19;24.08;;;14.25;;
50319;SDS011;36226;53.464;9.852;2022-10-31T11:30:54;23.60;;;13.55;;
50319;SDS011;36226;53.464;9.852;2022-10-31T11:36:14;27.08;;;14.02;;
50319;SDS011;36226;53.464;9.852;2022-10-31T11:38:43;27.90;;;14.95;;
50319;SDS011;36226;53.464;9.852;2022-10-31T11:43:35;27.95;;;14.85;;
50319;SDS011;36226;53.464;9.852;2022-10-31T11:46:08;30.13;;;14.65;;
50319;SDS011;36226;53.464;9.852;2022-10-31T11:48:35;26.05;;;13.10;;
50319;SDS011;36226;53.464;9.852;2022-10-31T11:51:01;29.05;;;14.35;;
50319;SDS011;36226;53.464;9.852;2022-10-31T11:53:27;23.80;;;12.93;;
50319;SDS011;36226;53.464;9.852;2022-10-31T11:56:13;25.35;;;14.10;;
50319;SDS011;36226;53.464;9.852;2022-10-31T11:58:39;24.20;;;14.10;;
50319;SDS011;36226;53.464;9.852;2022-10-31T12:01:05;24.13;;;13.52;;
50319;SDS011;36226;53.464;9.852;2022-10-31T12:03:40;26.65;;;14.23;;
50319;SDS011;36226;53.464;9.852;2022-10-31T12:06:15;23.70;;;13.70;;
50319;SDS011;36226;53.464;9.852;2022-10-31T12:08:43;25.35;;;13.60;;
50319;SDS011;36226;53.464;9.852;2022-10-31T12:16:39;23.45;;;13.27;;
50319;SDS011;36226;53.464;9.852;2022-10-31T12:19:14;21.92;;;12.52;;
50319;SDS011;36226;53.464;9.852;2022-10-31T12:24:35;24.42;;;12.73;;
50319;SDS011;36226;53.464;9.852;2022-10-31T12:27:14;24.70;;;12.82;;
50319;SDS011;36226;53.464;9.852;2022-10-31T12:33:21;18.50;;;11.40;;
50319;SDS011;36226;53.464;9.852;2022-10-31T12:41:23;22.70;;;12.10;;
50319;SDS011;36226;53.464;9.852;2022-10-31T12:46:36;18.80;;;10.18;;
50319;SDS011;36226;53.464;9.852;2022-10-31T12:52:05;22.13;;;11.90;;
50319;SDS011;36226;53.464;9.852;2022-10-31T12:57:28;19.85;;;10.55;;
50319;SDS011;36226;53.464;9.852;2022-10-31T13:00:01;19.42;;;10.23;;
50319;SDS011;36226;53.464;9.852;2022-10-31T13:10:40;19.98;;;10.85;;
50319;SDS011;36226;53.464;9.852;2022-10-31T13:13:18;21.60;;;10.88;;
50319;SDS011;36226;53.464;9.852;2022-10-31T13:15:48;16.83;;;9.73;;
50319;SDS011;36226;53.464;9.852;2022-10-31T13:21:22;24.48;;;12.02;;
50319;SDS011;36226;53.464;9.852;2022-10-31T13:23:52;22.88;;;13.35;;
50319;SDS011;36226;53.464;9.852;2022-10-31T13:26:21;24.20;;;14.43;;
50319;SDS011;36226;53.464;9.852;2022-10-31T13:31:59;23.88;;;13.43;;
50319;SDS011;36226;53.464;9.852;2022-10-31T13:34:30;20.95;;;12.57;;
50319;SDS011;36226;53.464;9.852;2022-10-31T13:37:03;21.23;;;11.20;;
50319;SDS011;36226;53.464;9.852;2022-10-31T13:45:15;19.35;;;10.70;;
50319;SDS011;36226;53.464;9.852;2022-10-31T13:47:42;13.50;;;9.00;;
50319;SDS011;36226;53.464;9.852;2022-10-31T13:50:25;16.85;;;9.55;;
50319;SDS011;36226;53.464;9.852;2022-10-31T13:55:40;13.93;;;8.73;;
50319;SDS011;36226;53.464;9.852;2022-10-31T13:58:21;13.40;;;5.82;;
50319;SDS011;36226;53.464;9.852;2022-10-31T14:04:00;12.95;;;4.10;;
50319;SDS011;36226;53.464;9.852;2022-10-31T14:06:37;8.43;;;3.47;;
50319;SDS011;36226;53.464;9.852;2022-10-31T14:09:28;9.35;;;3.58;;
50319;SDS011;36226;53.464;9.852;2022-10-31T14:11:57;8.02;;;4.13;;
50319;SDS011;36226;53.464;9.852;2022-10-31T14:14:51;5.95;;;3.42;;
50319;SDS011;36226;53.464;9.852;2022-10-31T14:17:19;7.78;;;3.67;;
50319;SDS011;36226;53.464;9.852;2022-10-31T14:19:58;7.22;;;3.67;;
50319;SDS011;36226;53.464;9.852;2022-10-31T14:22:29;7.18;;;3.13;;
50319;SDS011;36226;53.464;9.852;2022-10-31T14:24:55;10.07;;;3.83;;
50319;SDS011;36226;53.464;9.852;2022-10-31T14:29:51;12.00;;;3.90;;
50319;SDS011;36226;53.464;9.852;2022-10-31T14:32:24;8.43;;;4.20;;
50319;SDS011;36226;53.464;9.852;2022-10-31T14:50:26;13.40;;;6.18;;
50319;SDS011;36226;53.464;9.852;2022-10-31T14:53:02;9.73;;;6.13;;
50319;SDS011;36226;53.464;9.852;2022-10-31T14:55:29;10.10;;;6.43;;
50319;SDS011;36226;53.464;9.852;2022-10-31T14:58:04;10.57;;;5.90;;
50319;SDS011;36226;53.464;9.852;2022-10-31T15:00:32;10.82;;;5.70;;
50319;SDS011;36226;53.464;9.852;2022-10-31T15:05:51;10.60;;;6.10;;
50319;SDS011;36226;53.464;9.852;2022-10-31T15:11:16;10.70;;;6.45;;
50319;SDS011;36226;53.464;9.852;2022-10-31T15:13:52;9.35;;;5.78;;
50319;SDS011;36226;53.464;9.852;2022-10-31T15:16:21;14.57;;;7.90;;
50319;SDS011;36226;53.464;9.852;2022-10-31T15:18:57;12.95;;;7.63;;
50319;SDS011;36226;53.464;9.852;2022-10-31T15:21:25;17.60;;;7.37;;
50319;SDS011;36226;53.464;9.852;2022-10-31T15:23:53;13.52;;;7.90;;
50319;SDS011;36226;53.464;9.852;2022-10-31T15:26:22;13.90;;;8.50;;
50319;SDS011;36226;53.464;9.852;2022-10-31T15:28:58;13.75;;;7.78;;
50319;SDS011;36226;53.464;9.852;2022-10-31T15:31:25;14.48;;;9.02;;
50319;SDS011;36226;53.464;9.852;2022-10-31T15:33:50;18.65;;;8.95;;
50319;SDS011;36226;53.464;9.852;2022-10-31T15:36:20;18.20;;;10.27;;
50319;SDS011;36226;53.464;9.852;2022-10-31T15:38:47;15.35;;;10.10;;
50319;SDS011;36226;53.464;9.852;2022-10-31T15:41:47;17.27;;;11.35;;
50319;SDS011;36226;53.464;9.852;2022-10-31T15:44:16;18.60;;;11.30;;
50319;SDS011;36226;53.464;9.852;2022-10-31T15:46:59;22.20;;;11.90;;
50319;SDS011;36226;53.464;9.852;2022-10-31T15:49:35;19.83;;;11.48;;
50319;SDS011;36226;53.464;9.852;2022-10-31T15:52:06;21.60;;;11.55;;
50319;SDS011;36226;53.464;9.852;2022-10-31T15:54:42;20.80;;;11.48;;
50319;SDS011;36226;53.464;9.852;2022-10-31T15:57:11;21.80;;;11.98;;
50319;SDS011;36226;53.464;9.852;2022-10-31T15:59:37;22.90;;;11.15;;
50319;SDS011;36226;53.464;9.852;2022-10-31T16:02:10;24.98;;;12.57;;
50319;SDS011;36226;53.464;9.852;2022-10-31T16:04:36;21.27;;;11.35;;
50319;SDS011;36226;53.464;9.852;2022-10-31T16:07:02;20.08;;;11.50;;
50319;SDS011;36226;53.464;9.852;2022-10-31T16:12:52;25.10;;;11.88;;
50319;SDS011;36226;53.464;9.852;2022-10-31T16:15:21;24.48;;;11.73;;
50319;SDS011;36226;53.464;9.852;2022-10-31T16:17:48;22.15;;;11.73;;
50319;SDS011;36226;53.464;9.852;2022-10-31T16:20:21;24.05;;;12.13;;
50319;SDS011;36226;53.464;9.852;2022-10-31T16:22:50;21.45;;;11.60;;
50319;SDS011;36226;53.464;9.852;2022-10-31T16:25:19;22.58;;;11.63;;
50319;SDS011;36226;53.464;9.852;2022-10-31T16:28:03;21.52;;;11.55;;
50319;SDS011;36226;53.464;9.852;2022-10-31T16:30:37;21.05;;;11.77;;
50319;SDS011;36226;53.464;9.852;2022-10-31T16:33:23;22.00;;;10.75;;
50319;SDS011;36226;53.464;9.852;2022-10-31T16:35:49;17.65;;;10.32;;
50319;SDS011;36226;53.464;9.852;2022-10-31T16:38:14;23.55;;;10.20;;
50319;SDS011;36226;53.464;9.852;2022-10-31T16:40:42;18.67;;;10.48;;
50319;SDS011;36226;53.464;9.852;2022-10-31T16:43:09;23.55;;;10.13;;
50319;SDS011;36226;53.464;9.852;2022-10-31T16:45:37;19.30;;;10.50;;
50319;SDS011;36226;53.464;9.852;2022-10-31T16:48:11;22.13;;;10.93;;
50319;SDS011;36226;53.464;9.852;2022-10-31T16:50:39;21.02;;;10.05;;